Terminal Aerodrome Forecast
Issued by NWS

Home | Current Version | Previous Version | Text Only | Print | Product List | Glossary On
Versions: 1 2 3 4 5 6 7 8 9 10 11 12
000
FTUS45 KBYZ 181720
TAFLVM
TAF
KLVM 181720Z 1818/1918 28015KT P6SM FEW250
     FM190200 24010KT P6SM SCT250
     FM190500 VRB05KT 5SM FU BKN250=

USA.gov is the U.S. government's official web portal to all federal, state and local government web resources and services.